Time;durP1;ratioP1;P1;durP2;ratioP2;P2;SDS_P1;SDS_P2;PMS_P1;PMS_P2;Temp;Humidity;BMP_temperature;BMP_pressure;BME280_temperature;BME280_humidity;BME280_pressure;Samples;Min_cycle;Max_cycle;Signal;HPM_P1;HPM_P2
2022/05/24 00:00:22;;;;;;;;;;;;;;;12.58;100.00;97430.09;5096902;28;19931;-88
2022/05/24 00:02:49;;;;;;;;;;;;;;;12.87;100.00;97439.88;5079788;28;19924;-89
2022/05/24 00:05:17;;;;;;;;;;;;;;;12.78;100.00;97435.88;5079662;28;19954;-89
2022/05/24 00:07:45;;;;;;;;;;;;;;;13.33;100.00;97435.50;5096847;28;19924;-89
2022/05/24 00:10:16;;;;;;;;;;;;;;;13.36;100.00;97428.94;5062933;28;19969;-90
2022/05/24 00:12:45;;;;;;;;;;;;;;;12.90;100.00;97430.50;5096617;28;19924;-89
2022/05/24 00:15:20;;;;;;;;;;;;;;;12.76;100.00;97432.00;5079243;28;19924;-88
2022/05/24 00:17:49;;;;;;;;;;;;;;;12.67;100.00;97429.25;5079427;28;20181;-89
2022/05/24 00:20:16;;;;;;;;;;;;;;;12.46;100.00;97436.69;5096354;28;19930;-89
2022/05/24 00:22:43;;;;;;;;;;;;;;;12.53;100.00;97427.16;5079188;28;19925;-88
2022/05/24 00:25:10;;;;;;;;;;;;;;;12.31;100.00;97432.25;5079950;28;19924;-90
2022/05/24 00:27:38;;;;;;;;;;;;;;;12.29;100.00;97429.94;5079551;28;19931;-89
2022/05/24 00:30:05;;;;;;;;;;;;;;;12.59;100.00;97428.84;5062689;28;19931;-88
2022/05/24 00:32:32;;;;;;;;;;;;;;;12.28;100.00;97433.22;5079113;28;19924;-88
2022/05/24 00:34:59;;;;;;;;;;;;;;;12.52;100.00;97423.59;5062567;28;19930;-89
2022/05/24 00:37:28;;;;;;;;;;;;;;;12.47;100.00;97431.84;5062613;28;19924;-89
2022/05/24 00:39:56;;;;;;;;;;;;;;;12.39;100.00;97431.44;5079377;28;19971;-90
2022/05/24 00:42:26;;;;;;;;;;;;;;;12.32;100.00;97437.38;5095906;27;19923;-91
2022/05/24 00:44:53;;;;;;;;;;;;;;;12.52;100.00;97428.41;5078797;28;20564;-89
2022/05/24 00:47:21;;;;;;;;;;;;;;;12.34;100.00;97429.28;5062240;28;19931;-90
2022/05/24 00:49:56;;;;;;;;;;;;;;;12.28;100.00;97425.56;5062291;28;19981;-90
2022/05/24 00:52:28;;;;;;;;;;;;;;;12.32;100.00;97426.19;5078882;28;20008;-88
2022/05/24 00:54:58;;;;;;;;;;;;;;;12.31;100.00;97424.63;5095505;27;19924;-91
2022/05/24 00:57:31;;;;;;;;;;;;;;;12.24;100.00;97436.16;5095542;28;19924;-88
2022/05/24 01:00:10;;;;;;;;;;;;;;;12.21;100.00;97434.31;5095585;28;19963;-90
2022/05/24 01:02:37;;;;;;;;;;;;;;;12.41;100.00;97428.94;5079149;28;20019;-90
2022/05/24 01:05:05;;;;;;;;;;;;;;;12.30;100.00;97428.69;5045422;28;19924;-89
2022/05/24 01:07:33;;;;;;;;;;;;;;;12.59;100.00;97428.06;5062341;28;20287;-89
2022/05/24 01:10:06;;;;;;;;;;;;;;;12.40;100.00;97426.63;5078437;28;19924;-89
2022/05/24 01:12:37;;;;;;;;;;;;;;;12.22;100.00;97421.09;5078299;28;19924;-88
2022/05/24 01:15:07;;;;;;;;;;;;;;;12.16;100.00;97418.16;5078456;28;19924;-88
2022/05/24 01:17:35;;;;;;;;;;;;;;;12.12;100.00;97420.38;5061991;28;20014;-88
2022/05/24 01:20:03;;;;;;;;;;;;;;;12.34;100.00;97434.88;5078208;28;21563;-89
2022/05/24 01:22:49;;;;;;;;;;;;;;;12.45;100.00;97432.34;5077981;28;20402;-87
2022/05/24 01:25:16;;;;;;;;;;;;;;;12.59;100.00;97434.44;5078379;28;19924;-88
2022/05/24 01:27:44;;;;;;;;;;;;;;;12.48;100.00;97433.44;5077798;28;19924;-88
2022/05/24 01:30:11;;;;;;;;;;;;;;;12.53;100.00;97436.34;5044929;28;19928;-87
2022/05/24 01:38:12;;;;;;;;;;;;;;;12.74;100.00;97437.31;5094933;28;19932;-88
2022/05/24 01:40:39;;;;;;;;;;;;;;;12.25;100.00;97437.72;5077728;28;19935;-88
2022/05/24 01:43:07;;;;;;;;;;;;;;;12.33;100.00;97436.13;5095146;28;20314;-88
2022/05/24 01:45:53;;;;;;;;;;;;;;;12.38;100.00;97432.69;5062236;28;20010;-88
2022/05/24 01:48:23;;;;;;;;;;;;;;;12.56;100.00;97438.19;5044765;28;19963;-83
2022/05/24 01:50:52;;;;;;;;;;;;;;;12.74;100.00;97435.28;5078334;28;19930;-89
2022/05/24 01:53:32;;;;;;;;;;;;;;;12.81;100.00;97427.78;5061001;28;19924;-89
2022/05/24 01:56:13;;;;;;;;;;;;;;;12.65;100.00;97449.34;5061195;28;20024;-89
2022/05/24 01:58:42;;;;;;;;;;;;;;;12.54;100.00;97437.88;5077538;28;20293;-89
2022/05/24 02:01:16;;;;;;;;;;;;;;;12.56;100.00;97441.00;5060908;28;19959;-88
2022/05/24 02:03:43;;;;;;;;;;;;;;;12.41;100.00;97440.16;5061041;28;19924;-89
2022/05/24 02:06:37;;;;;;;;;;;;;;;12.59;100.00;97440.03;5059897;28;19924;-88
2022/05/24 02:09:04;;;;;;;;;;;;;;;12.18;100.00;97437.28;5075717;28;20004;-90
2022/05/24 02:11:32;;;;;;;;;;;;;;;12.36;100.00;97440.78;5077225;28;19924;-88
2022/05/24 02:14:06;;;;;;;;;;;;;;;12.41;100.00;97440.16;5094311;28;20020;-90
2022/05/24 02:16:37;;;;;;;;;;;;;;;12.31;100.00;97447.03;5094192;27;19977;-90
2022/05/24 02:19:07;;;;;;;;;;;;;;;12.10;100.00;97450.84;5077219;28;19924;-87
2022/05/24 02:21:36;;;;;;;;;;;;;;;12.53;100.00;97453.16;5060599;28;19924;-90
2022/05/24 02:24:14;;;;;;;;;;;;;;;12.27;100.00;97438.03;5060832;28;19924;-90
2022/05/24 02:26:41;;;;;;;;;;;;;;;12.20;100.00;97457.19;5077474;28;20437;-90
2022/05/24 02:29:09;;;;;;;;;;;;;;;12.11;100.00;97460.03;5077176;28;19931;-90
2022/05/24 02:31:36;;;;;;;;;;;;;;;12.10;100.00;97459.25;5093997;28;20310;-89
2022/05/24 02:34:03;;;;;;;;;;;;;;;12.32;100.00;97464.59;5093904;27;20387;-90
2022/05/24 02:36:30;;;;;;;;;;;;;;;12.17;100.00;97464.53;5093949;28;19931;-90
2022/05/24 02:39:00;;;;;;;;;;;;;;;12.03;100.00;97461.59;5077483;28;20294;-90
2022/05/24 02:41:36;;;;;;;;;;;;;;;12.43;100.00;97459.28;5060861;28;19931;-91
2022/05/24 02:44:05;;;;;;;;;;;;;;;12.25;100.00;97465.72;5077080;28;20448;-89
2022/05/24 02:46:33;;;;;;;;;;;;;;;12.45;100.00;97454.75;5093808;28;20438;-90
2022/05/24 02:49:00;;;;;;;;;;;;;;;12.40;100.00;97463.03;5076933;28;19931;-90
2022/05/24 02:51:27;;;;;;;;;;;;;;;12.49;100.00;97463.78;5077030;28;19931;-90
2022/05/24 02:53:55;;;;;;;;;;;;;;;12.28;100.00;97459.16;5093849;28;20003;-90
2022/05/24 02:56:23;;;;;;;;;;;;;;;12.00;100.00;97459.75;5093838;28;20004;-91
2022/05/24 02:58:50;;;;;;;;;;;;;;;12.06;100.00;97455.84;5060633;28;19945;-90
2022/05/24 03:01:22;;;;;;;;;;;;;;;12.00;100.00;97452.13;5043608;28;19924;-90
2022/05/24 03:03:51;;;;;;;;;;;;;;;12.05;100.00;97451.50;5060098;28;19967;-90
2022/05/24 03:06:19;;;;;;;;;;;;;;;11.76;100.00;97461.66;5076873;28;19924;-90
2022/05/24 03:14:18;;;;;;;;;;;;;;;11.88;100.00;97453.09;5060012;28;19924;-89
2022/05/24 03:16:46;;;;;;;;;;;;;;;12.16;100.00;97467.78;5092972;28;19924;-89
2022/05/24 03:19:14;;;;;;;;;;;;;;;12.03;100.00;97470.78;5093473;28;19947;-89
2022/05/24 03:21:41;;;;;;;;;;;;;;;12.07;100.00;97471.38;5094417;28;20282;-89
2022/05/24 03:24:09;;;;;;;;;;;;;;;11.84;100.00;97463.69;5059710;28;20299;-89
2022/05/24 03:26:37;;;;;;;;;;;;;;;11.73;100.00;97466.19;5076362;28;19924;-92
2022/05/24 03:29:05;;;;;;;;;;;;;;;11.95;100.00;97480.75;5093238;28;19977;-88
2022/05/24 03:31:33;;;;;;;;;;;;;;;12.02;100.00;97486.03;5092961;28;20372;-88
2022/05/24 03:34:01;;;;;;;;;;;;;;;11.90;100.00;97473.00;5059792;28;20375;-91
2022/05/24 03:36:29;;;;;;;;;;;;;;;12.16;100.00;97468.56;5059898;28;19977;-90
2022/05/24 03:38:56;;;;;;;;;;;;;;;11.86;100.00;97483.56;5043138;28;19924;-89
2022/05/24 03:41:23;;;;;;;;;;;;;;;11.66;100.00;97474.88;5076595;28;19974;-90
2022/05/24 03:43:51;;;;;;;;;;;;;;;11.67;100.00;97486.88;5059602;28;19924;-89
2022/05/24 03:46:18;;;;;;;;;;;;;;;11.75;100.00;97476.91;5043146;28;19924;-89
2022/05/24 03:48:46;;;;;;;;;;;;;;;11.69;100.00;97485.16;5076110;28;20264;-88
2022/05/24 03:51:13;;;;;;;;;;;;;;;11.52;100.00;97492.31;5076289;28;19930;-92
2022/05/24 03:53:40;;;;;;;;;;;;;;;11.60;100.00;97490.72;5093078;28;20394;-92
2022/05/24 03:56:08;;;;;;;;;;;;;;;11.49;100.00;97486.84;5059520;28;19931;-93
2022/05/24 03:58:35;;;;;;;;;;;;;;;11.73;100.00;97501.78;5092734;28;20375;-91
2022/05/24 04:01:03;;;;;;;;;;;;;;;11.64;100.00;97499.78;5075957;28;20371;-91
2022/05/24 04:03:30;;;;;;;;;;;;;;;11.58;100.00;97496.03;5043088;28;20398;-91
2022/05/24 04:05:58;;;;;;;;;;;;;;;11.98;100.00;97510.59;5075739;28;19931;-90
2022/05/24 04:08:26;;;;;;;;;;;;;;;11.88;100.00;97520.25;5075967;28;19969;-92
2022/05/24 04:11:04;;;;;;;;;;;;;;;11.57;100.00;97511.22;5076167;28;20410;-92
2022/05/24 04:13:31;;;;;;;;;;;;;;;11.72;100.00;97512.19;5076157;28;19924;-93
2022/05/24 04:15:58;;;;;;;;;;;;;;;11.57;100.00;97500.03;5059373;28;19924;-92
2022/05/24 04:18:26;;;;;;;;;;;;;;;11.67;100.00;97515.63;5092802;28;19925;-91
2022/05/24 04:20:53;;;;;;;;;;;;;;;11.47;100.00;97506.13;5059827;28;20386;-91
2022/05/24 04:23:22;;;;;;;;;;;;;;;11.50;100.00;97522.75;5092842;28;20383;-92
2022/05/24 04:25:49;;;;;;;;;;;;;;;11.59;100.00;97519.16;5059819;28;19974;-91
2022/05/24 04:28:18;;;;;;;;;;;;;;;11.55;100.00;97518.56;5076092;28;20401;-92
2022/05/24 04:30:47;;;;;;;;;;;;;;;11.80;100.00;97521.81;5079740;28;20010;-91
2022/05/24 04:33:15;;;;;;;;;;;;;;;11.72;100.00;97531.75;5096502;28;20049;-91
2022/05/24 04:35:44;;;;;;;;;;;;;;;11.81;100.00;97523.38;5079699;28;19954;-90
2022/05/24 04:38:11;;;;;;;;;;;;;;;11.85;100.00;97526.00;5079422;28;20391;-91
2022/05/24 04:43:25;;;;;;;;;;;;;;;11.57;100.00;97530.81;5079425;28;19924;-92
2022/05/24 04:45:53;;;;;;;;;;;;;;;11.63;100.00;97515.00;5079781;28;20426;-93
2022/05/24 04:48:25;;;;;;;;;;;;;;;11.61;100.00;97520.25;5079738;28;19924;-93
2022/05/24 04:50:52;;;;;;;;;;;;;;;11.51;100.00;97534.72;5078909;28;20372;-92
2022/05/24 04:53:20;;;;;;;;;;;;;;;11.74;100.00;97537.69;5045824;28;20013;-90
2022/05/24 04:55:49;;;;;;;;;;;;;;;11.57;100.00;97542.00;5062476;28;19924;-91
2022/05/24 04:58:16;;;;;;;;;;;;;;;11.73;100.00;97535.34;5045553;28;20002;-90
2022/05/24 05:00:44;;;;;;;;;;;;;;;11.81;100.00;97547.78;5078940;28;19974;-91
2022/05/24 05:03:13;;;;;;;;;;;;;;;11.74;100.00;97537.69;5095472;28;19924;-91
2022/05/24 05:05:40;;;;;;;;;;;;;;;11.48;100.00;97542.00;5078507;28;19928;-87
2022/05/24 05:08:08;;;;;;;;;;;;;;;11.38;100.00;97543.25;5062108;28;19995;-88
2022/05/24 05:10:36;;;;;;;;;;;;;;;11.64;100.00;97550.13;5079227;28;19928;-87
2022/05/24 05:13:05;;;;;;;;;;;;;;;11.55;100.00;97547.31;5095987;28;19924;-87
2022/05/24 05:15:37;;;;;;;;;;;;;;;11.47;100.00;97551.66;5078694;28;19931;-86
2022/05/24 05:18:06;;;;;;;;;;;;;;;11.45;100.00;97551.31;5095037;28;19924;-86
2022/05/24 05:20:39;;;;;;;;;;;;;;;11.68;100.00;97564.72;5096256;28;19974;-86
2022/05/24 05:23:07;;;;;;;;;;;;;;;11.39;100.00;97555.97;5096118;28;20012;-87
2022/05/24 05:25:37;;;;;;;;;;;;;;;11.33;100.00;97563.44;5078041;28;20404;-87
2022/05/24 05:28:05;;;;;;;;;;;;;;;11.79;100.00;97579.03;5044853;28;20027;-84
2022/05/24 05:33:18;;;;;;;;;;;;;;;11.85;100.00;97571.56;5077418;28;19928;-86
2022/05/24 05:35:49;;;;;;;;;;;;;;;12.13;100.00;97564.69;5094747;28;19925;-86
2022/05/24 05:38:17;;;;;;;;;;;;;;;12.01;100.00;97560.03;5095278;28;19924;-85
2022/05/24 05:40:45;;;;;;;;;;;;;;;11.99;100.00;97558.97;5077399;28;19925;-85
2022/05/24 05:43:12;;;;;;;;;;;;;;;11.80;100.00;97569.38;5060360;28;20329;-85
2022/05/24 05:45:40;;;;;;;;;;;;;;;11.95;100.00;97566.75;5077789;28;19924;-85
2022/05/24 05:48:07;;;;;;;;;;;;;;;12.46;100.00;97581.56;5077537;28;19924;-86
2022/05/24 05:50:34;;;;;;;;;;;;;;;12.27;100.00;97575.22;5077972;28;19924;-86
2022/05/24 05:53:04;;;;;;;;;;;;;;;12.06;100.00;97584.59;5095697;28;19935;-85
2022/05/24 05:55:31;;;;;;;;;;;;;;;12.27;100.00;97580.84;5075425;28;20029;-83
2022/05/24 05:57:58;;;;;;;;;;;;;;;12.08;100.00;97584.94;5054894;28;19931;-85
2022/05/24 06:00:25;;;;;;;;;;;;;;;11.94;100.00;97602.34;5071742;28;20007;-83
2022/05/24 06:02:52;;;;;;;;;;;;;;;12.17;100.00;97596.13;5072436;28;19928;-81
2022/05/24 06:05:21;;;;;;;;;;;;;;;12.47;100.00;97588.72;5071022;28;20009;-83
2022/05/24 06:07:48;;;;;;;;;;;;;;;12.76;100.00;97588.94;5054952;28;19924;-83
2022/05/24 06:10:16;;;;;;;;;;;;;;;12.59;100.00;97588.53;5072571;28;19939;-83
2022/05/24 06:12:42;;;;;;;;;;;;;;;12.65;100.00;97597.84;5071897;28;19924;-83
2022/05/24 06:15:10;;;;;;;;;;;;;;;12.74;100.00;97603.41;5054664;28;19924;-82
2022/05/24 06:17:45;;;;;;;;;;;;;;;12.54;100.00;97599.63;5054780;28;20731;-81
2022/05/24 06:20:19;;;;;;;;;;;;;;;12.57;100.00;97607.84;5055570;28;19924;-81
2022/05/24 06:22:49;;;;;;;;;;;;;;;12.90;100.00;97607.09;5070845;28;19931;-81
2022/05/24 06:25:16;;;;;;;;;;;;;;;12.89;100.00;97608.34;5071752;28;20451;-83
2022/05/24 06:27:43;;;;;;;;;;;;;;;12.90;100.00;97604.28;5072548;28;19932;-82
2022/05/24 06:30:11;;;;;;;;;;;;;;;13.10;100.00;97613.72;5070732;28;19924;-82
2022/05/24 06:32:38;;;;;;;;;;;;;;;12.96;100.00;97624.81;5053925;28;19928;-82
2022/05/24 06:35:06;;;;;;;;;;;;;;;12.93;100.00;97625.78;5072051;28;19928;-82
2022/05/24 06:37:33;;;;;;;;;;;;;;;12.87;100.00;97622.06;5071645;28;19924;-81
2022/05/24 06:40:00;;;;;;;;;;;;;;;12.94;100.00;97621.72;5073101;28;20457;-82
2022/05/24 06:42:28;;;;;;;;;;;;;;;12.67;100.00;97631.78;5070235;28;19932;-80
2022/05/24 06:44:56;;;;;;;;;;;;;;;12.73;100.00;97629.13;5069151;28;19947;-80
2022/05/24 06:47:24;;;;;;;;;;;;;;;12.69;100.00;97632.06;5070657;28;20303;-81
2022/05/24 06:49:51;;;;;;;;;;;;;;;12.58;100.00;97639.44;5053758;28;19939;-84
2022/05/24 06:52:19;;;;;;;;;;;;;;;12.53;100.00;97649.25;5069549;28;19924;-82
2022/05/24 06:54:46;;;;;;;;;;;;;;;12.92;100.00;97646.66;5037485;28;19978;-83
2022/05/24 06:57:13;;;;;;;;;;;;;;;12.98;100.00;97644.75;5071292;28;20384;-82
2022/05/24 07:02:28;;;;;;;;;;;;;;;12.31;100.00;97657.06;5069966;28;20494;-80
2022/05/24 07:04:59;;;;;;;;;;;;;;;12.51;100.00;97657.34;5069082;28;19925;-80
2022/05/24 07:07:27;;;;;;;;;;;;;;;13.15;100.00;97668.38;5054558;28;19924;-79
2022/05/24 07:09:54;;;;;;;;;;;;;;;13.43;100.00;97658.59;5071739;28;19948;-75
2022/05/24 07:12:21;;;;;;;;;;;;;;;13.24;100.00;97669.13;5075654;28;19925;-75
2022/05/24 07:14:49;;;;;;;;;;;;;;;12.70;100.00;97658.88;5074493;28;20011;-75
2022/05/24 07:17:17;;;;;;;;;;;;;;;12.80;100.00;97662.41;5077874;28;19931;-75
2022/05/24 07:19:46;;;;;;;;;;;;;;;12.80;100.00;97667.25;5053488;28;20019;-76
2022/05/24 07:22:13;;;;;;;;;;;;;;;12.53;100.00;97676.47;5081682;28;20367;-78
2022/05/24 07:24:41;;;;;;;;;;;;;;;13.01;100.00;97683.09;5068615;28;20019;-77
2022/05/24 07:27:09;;;;;;;;;;;;;;;12.67;100.00;97676.63;5071699;28;20293;-78
2022/05/24 07:29:37;;;;;;;;;;;;;;;12.30;100.00;97691.91;5073238;28;19970;-77
2022/05/24 07:32:05;;;;;;;;;;;;;;;12.92;100.00;97702.72;5072452;28;20383;-77
2022/05/24 07:34:33;;;;;;;;;;;;;;;12.51;100.00;97693.00;5072160;28;20035;-78
2022/05/24 07:37:01;;;;;;;;;;;;;;;12.54;100.00;97700.47;5071668;28;19977;-77
2022/05/24 07:39:28;;;;;;;;;;;;;;;12.15;100.00;97702.19;5055446;28;20015;-77
2022/05/24 07:47:40;;;;;;;;;;;;;;;11.77;100.00;97720.66;5073398;28;19924;-77
2022/05/24 07:50:07;;;;;;;;;;;;;;;11.57;100.00;97729.41;5072260;28;19948;-77
2022/05/24 07:52:35;;;;;;;;;;;;;;;12.00;100.00;97736.84;5072082;28;19925;-77
2022/05/24 07:55:03;;;;;;;;;;;;;;;12.11;100.00;97718.38;5073430;28;20256;-77
2022/05/24 07:57:30;;;;;;;;;;;;;;;12.23;100.00;97720.25;5073276;28;19970;-77
2022/05/24 08:00:00;;;;;;;;;;;;;;;12.82;100.00;97726.41;5073303;28;20452;-77
2022/05/24 08:02:27;;;;;;;;;;;;;;;12.59;100.00;97725.81;5073653;28;19925;-77
2022/05/24 08:04:55;;;;;;;;;;;;;;;12.69;100.00;97730.16;5073237;28;19934;-75
2022/05/24 08:07:22;;;;;;;;;;;;;;;12.81;100.00;97730.47;5079851;28;20540;-77
2022/05/24 08:09:50;;;;;;;;;;;;;;;13.20;100.00;97724.63;5054667;28;19924;-77
2022/05/24 08:12:17;;;;;;;;;;;;;;;13.27;100.00;97723.50;5076773;28;20355;-78
2022/05/24 08:14:44;;;;;;;;;;;;;;;13.47;100.00;97729.31;5082130;28;20025;-77
2022/05/24 08:17:15;;;;;;;;;;;;;;;13.83;100.00;97717.91;5086639;28;19928;-77
2022/05/24 08:19:41;;;;;;;;;;;;;;;13.89;100.00;97724.41;5076077;28;19929;-77
2022/05/24 08:22:09;;;;;;;;;;;;;;;14.26;100.00;97717.34;5086957;28;20276;-77
2022/05/24 08:24:36;;;;;;;;;;;;;;;14.60;100.00;97718.78;5063040;28;20011;-76
2022/05/24 08:27:03;;;;;;;;;;;;;;;14.64;100.00;97724.97;5080859;28;19932;-77
2022/05/24 08:29:30;;;;;;;;;;;;;;;14.92;100.00;97720.66;5075506;28;20348;-77
2022/05/24 08:31:57;;;;;;;;;;;;;;;15.28;100.00;97709.75;5092023;28;20380;-77
2022/05/24 08:34:24;;;;;;;;;;;;;;;15.49;100.00;97717.03;5075203;28;20362;-77
2022/05/24 08:36:51;;;;;;;;;;;;;;;15.15;100.00;97716.94;5076227;28;20409;-78
2022/05/24 08:39:18;;;;;;;;;;;;;;;14.86;100.00;97716.97;5073535;28;20415;-77
2022/05/24 08:42:11;;;;;;;;;;;;;;;14.68;100.00;97715.09;5075922;28;19986;-77
2022/05/24 08:50:16;;;;;;;;;;;;;;;13.59;100.00;97745.16;5081882;28;20395;-79
2022/05/24 08:52:48;;;;;;;;;;;;;;;13.49;100.00;97746.47;5091861;28;19931;-78
2022/05/24 08:55:16;;;;;;;;;;;;;;;13.47;100.00;97748.97;5075394;28;20277;-79
2022/05/24 08:57:47;;;;;;;;;;;;;;;13.36;100.00;97743.88;5086827;28;19959;-78
2022/05/24 09:00:34;;;;;;;;;;;;;;;13.50;100.00;97754.41;5081944;28;20383;-79
2022/05/24 09:03:05;;;;;;;;;;;;;;;13.85;100.00;97763.13;5092611;28;19924;-78
2022/05/24 09:05:35;;;;;;;;;;;;;;;13.58;100.00;97777.31;5074701;28;19930;-78
2022/05/24 09:08:11;;;;;;;;;;;;;;;13.24;100.00;97783.34;5083959;28;19976;-79
2022/05/24 09:10:43;;;;;;;;;;;;;;;12.99;100.00;97780.88;5070806;28;19925;-78
2022/05/24 09:13:52;;;;;;;;;;;;;;;13.22;100.00;97775.41;5083016;28;20387;-78
2022/05/24 09:16:35;;;;;;;;;;;;;;;12.74;100.00;97771.56;5052017;28;20445;-78
2022/05/24 09:23:14;;;;;;;;;;;;;;;12.70;100.00;97787.78;5079604;27;20014;-77
2022/05/24 09:26:25;;;;;;;;;;;;;;;;;;;;;
2022/05/24 09:29:50;;;;;;;;;;;;;;;13.67;100.00;97780.84;5072576;28;19916;-78
2022/05/24 09:36:03;;;;;;;;;;;;;;;14.54;100.00;97785.34;5060326;28;19920;-78
2022/05/24 09:38:39;;;;;;;;;;;;;;;14.17;100.00;97790.41;5071723;28;19928;-78
2022/05/24 09:42:36;;;;;;;;;;;;;;;15.09;100.00;97787.19;5042338;28;19990;-77
2022/05/24 09:45:09;;;;;;;;;;;;;;;15.03;100.00;97782.69;5076875;28;19947;-77
2022/05/24 09:48:56;;;;;;;;;;;;;;;15.25;100.00;97778.25;5105190;27;19965;-77
2022/05/24 09:51:30;;;;;;;;;;;;;;;15.63;100.00;97780.97;5105216;28;20426;-76
2022/05/24 09:53:57;;;;;;;;;;;;;;;15.37;100.00;97771.56;5103992;28;20006;-77
2022/05/24 09:56:33;;;;;;;;;;;;;;;15.43;100.00;97766.06;5106159;28;20635;-78
2022/05/24 09:59:01;;;;;;;;;;;;;;;15.87;100.00;97786.47;5105148;28;19924;-76
2022/05/24 10:01:31;;;;;;;;;;;;;;;16.27;100.00;97772.44;5099793;28;19924;-77
2022/05/24 10:07:27;;;;;;;;;;;;;;;14.57;100.00;97806.88;5100204;28;19931;-77
2022/05/24 10:10:14;;;;;;;;;;;;;;;13.83;100.00;97805.72;5104152;28;19928;-77
2022/05/24 10:13:00;;;;;;;;;;;;;;;13.96;100.00;97805.50;5102599;28;19928;-77
2022/05/24 10:15:27;;;;;;;;;;;;;;;14.00;100.00;97808.91;5097010;28;19924;-77
2022/05/24 10:17:54;;;;;;;;;;;;;;;14.07;100.00;97802.97;5085588;28;20300;-78
2022/05/24 10:20:49;;;;;;;;;;;;;;;13.81;100.00;97813.06;5095039;28;19932;-77
2022/05/24 10:23:34;;;;;;;;;;;;;;;14.06;100.00;97807.78;5107515;28;19931;-77
2022/05/24 10:26:07;;;;;;;;;;;;;;;14.29;100.00;97815.50;5104169;28;20257;-77
2022/05/24 10:28:37;;;;;;;;;;;;;;;14.48;100.00;97822.53;5098894;28;19969;-77
2022/05/24 10:31:20;;;;;;;;;;;;;;;14.47;100.00;97808.97;5101915;28;19931;-78
2022/05/24 10:40:18;;;;;;;;;;;;;;;15.16;100.00;97803.66;5105064;28;19924;-77
2022/05/24 10:43:04;;;;;;;;;;;;;;;14.80;100.00;97809.63;5089500;28;19950;-79
2022/05/24 10:45:51;;;;;;;;;;;;;;;15.45;100.00;97812.16;5105395;28;20374;-78
2022/05/24 10:48:46;;;;;;;;;;;;;;;;;;;;;
2022/05/24 10:52:10;;;;;;;;;;;;;;;15.06;100.00;97805.03;5108600;28;19920;-79
2022/05/24 10:54:50;;;;;;;;;;;;;;;15.30;100.00;97796.47;5106164;28;19924;-78
2022/05/24 10:57:33;;;;;;;;;;;;;;;15.36;100.00;97805.81;5097824;28;20299;-79
2022/05/24 11:00:05;;;;;;;;;;;;;;;15.38;100.00;97787.22;5092426;28;19931;-79
2022/05/24 11:02:37;;;;;;;;;;;;;;;15.14;100.00;97809.03;5096543;28;19930;-79
2022/05/24 11:05:07;;;;;;;;;;;;;;;15.16;100.00;97789.59;5096854;28;19924;-79
2022/05/24 11:08:21;;;;;;;;;;;;;;;15.60;100.00;97810.09;5077292;28;19928;-77
2022/05/24 11:10:48;;;;;;;;;;;;;;;15.28;100.00;97810.28;5089272;28;19964;-79
2022/05/24 11:13:46;;;;;;;;;;;;;;;15.30;100.00;97819.78;5088429;28;19924;-79
2022/05/24 11:16:16;;;;;;;;;;;;;;;15.33;100.00;97830.06;5076579;28;19924;-78
2022/05/24 11:18:43;;;;;;;;;;;;;;;15.48;100.00;97828.06;5096089;28;19924;-78
2022/05/24 11:21:14;;;;;;;;;;;;;;;15.75;100.00;97838.25;5096095;28;19924;-79
2022/05/24 11:23:47;;;;;;;;;;;;;;;15.63;100.00;97837.28;5095493;28;19924;-78
2022/05/24 11:26:21;;;;;;;;;;;;;;;15.55;100.00;97835.34;5095936;28;20021;-77
2022/05/24 11:29:50;;;;;;;;;;;;;;;15.34;100.00;97828.78;5036754;28;19936;-78
2022/05/24 11:40:24;;;;;;;;;;;;;;;15.73;100.00;97830.28;5021718;28;19979;-80
2022/05/24 11:42:52;;;;;;;;;;;;;;;16.16;100.00;97840.69;5044825;28;20396;-81
2022/05/24 11:46:01;;;;;;;;;;;;;;;;;;;;;
2022/05/24 11:48:56;;;;;;;;;;;;;;;14.70;100.00;97846.72;5049244;28;19928;-80
2022/05/24 11:51:36;;;;;;;;;;;;;;;15.70;100.00;97858.63;5049576;28;20419;-80
2022/05/24 11:54:12;;;;;;;;;;;;;;;15.74;100.00;97853.56;5043024;28;19925;-79
2022/05/24 11:56:43;;;;;;;;;;;;;;;15.78;100.00;97859.81;5043849;28;19956;-80
2022/05/24 12:00:02;;;;;;;;;;;;;;;15.51;100.00;97865.75;5004010;28;19925;-79
2022/05/24 12:07:54;;;;;;;;;;;;;;;15.59;100.00;97870.50;5024705;28;20381;-79
2022/05/24 12:12:24;;;;;;;;;;;;;;;16.07;100.00;97866.16;5019556;28;19996;-79
2022/05/24 12:15:51;;;;;;;;;;;;;;;16.00;100.00;97871.41;5024296;28;20011;-78
2022/05/24 12:18:24;;;;;;;;;;;;;;;15.95;100.00;97870.06;5020811;28;19933;-80
2022/05/24 12:24:38;;;;;;;;;;;;;;;16.64;100.00;97891.09;5063824;28;20002;-79
2022/05/24 12:27:17;;;;;;;;;;;;;;;16.41;100.00;97894.84;5079807;28;19924;-79
2022/05/24 12:32:48;;;;;;;;;;;;;;;16.29;100.00;97899.56;5086918;28;19924;-79
2022/05/24 12:35:17;;;;;;;;;;;;;;;15.88;100.00;97890.19;5081147;28;19932;-79
2022/05/24 12:37:52;;;;;;;;;;;;;;;15.99;100.00;97887.53;5079101;28;19940;-79
2022/05/24 12:40:24;;;;;;;;;;;;;;;16.35;100.00;97891.16;5081508;28;20292;-78
2022/05/24 12:42:56;;;;;;;;;;;;;;;16.25;100.00;97905.38;5080731;28;19931;-79
2022/05/24 12:45:35;;;;;;;;;;;;;;;16.05;100.00;97908.13;5084436;28;19931;-79
2022/05/24 12:48:05;;;;;;;;;;;;;;;16.22;100.00;97905.59;5084425;28;19977;-79
2022/05/24 12:50:39;;;;;;;;;;;;;;;16.17;100.00;97892.97;5088805;28;19928;-79
2022/05/24 12:53:08;;;;;;;;;;;;;;;16.25;100.00;97891.28;5072345;28;19924;-79
2022/05/24 12:58:40;;;;;;;;;;;;;;;16.44;100.00;97888.25;5062177;28;19935;-79
2022/05/24 13:04:51;;;;;;;;;;;;;;;16.58;100.00;97902.31;5083052;28;19927;-78
2022/05/24 13:07:38;;;;;;;;;;;;;;;16.67;100.00;97907.03;5084650;28;20014;-79
2022/05/24 13:10:10;;;;;;;;;;;;;;;17.00;100.00;97907.47;5078890;28;19932;-79
2022/05/24 13:12:50;;;;;;;;;;;;;;;16.90;100.00;97908.91;5082008;28;19939;-79
2022/05/24 13:20:37;;;;;;;;;;;;;;;16.71;100.00;97930.16;5088902;28;19932;-81
2022/05/24 13:23:16;;;;;;;;;;;;;;;16.55;100.00;97922.25;5058714;28;19924;-80
2022/05/24 13:25:54;;;;;;;;;;;;;;;16.66;100.00;97925.25;5083573;28;19931;-80
2022/05/24 13:28:33;;;;;;;;;;;;;;;16.36;100.00;97932.19;5089331;28;19924;-80
2022/05/24 13:34:15;;;;;;;;;;;;;;;16.59;100.00;97917.19;5064804;28;19928;-77
2022/05/24 13:36:44;;;;;;;;;;;;;;;16.83;100.00;97934.69;5069142;28;19947;-79
2022/05/24 13:39:25;;;;;;;;;;;;;;;16.95;100.00;97940.00;5071068;28;19947;-79
2022/05/24 13:41:54;;;;;;;;;;;;;;;17.12;100.00;97937.38;5070737;28;19924;-79
2022/05/24 13:44:40;;;;;;;;;;;;;;;16.81;100.00;97940.06;5085539;28;19924;-81
2022/05/24 13:47:09;;;;;;;;;;;;;;;16.46;100.00;97947.75;5069534;28;19932;-80
2022/05/24 13:49:37;;;;;;;;;;;;;;;16.64;100.00;97970.84;5070686;28;20348;-79
2022/05/24 13:52:21;;;;;;;;;;;;;;;16.64;100.00;97964.44;5070087;28;19932;-80
2022/05/24 13:54:49;;;;;;;;;;;;;;;16.38;100.00;97975.53;5052372;28;20074;-80
2022/05/24 13:57:27;;;;;;;;;;;;;;;16.19;100.00;97974.97;5083407;28;19967;-78
2022/05/24 13:59:56;;;;;;;;;;;;;;;16.12;100.00;97964.09;5090454;28;20349;-80
2022/05/24 14:02:25;;;;;;;;;;;;;;;16.20;100.00;97975.75;5078041;28;20070;-80
2022/05/24 14:04:53;;;;;;;;;;;;;;;16.05;100.00;97972.94;5069474;28;19971;-80
2022/05/24 14:07:20;;;;;;;;;;;;;;;16.07;100.00;97976.03;5070107;28;19960;-77
2022/05/24 14:09:47;;;;;;;;;;;;;;;15.45;100.00;97966.94;5069738;28;19924;-79
2022/05/24 14:12:16;;;;;;;;;;;;;;;15.59;100.00;97982.31;5070516;28;20924;-78
2022/05/24 14:14:46;;;;;;;;;;;;;;;15.96;100.00;97984.28;5088653;28;19924;-79
2022/05/24 14:17:14;;;;;;;;;;;;;;;16.27;100.00;97980.22;5090713;28;19924;-78
2022/05/24 14:19:41;;;;;;;;;;;;;;;15.93;100.00;97973.25;5089516;28;19966;-79
2022/05/24 14:22:09;;;;;;;;;;;;;;;15.84;100.00;97993.03;5080687;28;19924;-78
2022/05/24 14:24:40;;;;;;;;;;;;;;;15.94;100.00;97980.41;5073757;28;20452;-79
2022/05/24 14:27:09;;;;;;;;;;;;;;;15.52;100.00;97986.31;5089582;28;19931;-79
2022/05/24 14:29:36;;;;;;;;;;;;;;;15.47;100.00;97992.59;5089580;28;20060;-78
2022/05/24 14:32:03;;;;;;;;;;;;;;;15.43;100.00;97997.63;5083919;28;20291;-78